createdAt,value
2024-03-12T00:00:03.521Z,1001.56
2024-03-12T00:05:03.509Z,1001.58
2024-03-12T00:10:03.257Z,1001.59
2024-03-12T00:15:02.953Z,1001.67
2024-03-12T00:20:02.560Z,1001.64
2024-03-12T00:25:03.476Z,1001.71
2024-03-12T00:30:03.062Z,1001.71
2024-03-12T00:35:02.613Z,1001.79
2024-03-12T00:40:03.288Z,1001.76
2024-03-12T00:45:03.099Z,1001.79
2024-03-12T00:50:02.624Z,1001.75
2024-03-12T00:55:03.221Z,1001.83
2024-03-12T01:00:02.826Z,1001.84
2024-03-12T01:05:03.270Z,1001.87
2024-03-12T01:10:02.814Z,1001.91
2024-03-12T01:15:02.464Z,1002.01
2024-03-12T01:20:03.080Z,1001.99
2024-03-12T01:25:02.861Z,1002.01
2024-03-12T01:30:02.483Z,1002.03
2024-03-12T01:35:03.228Z,1002.01
2024-03-12T01:40:02.784Z,1002.01
2024-03-12T01:45:03.388Z,1002.04
2024-03-12T01:50:03.033Z,1002.1
2024-03-12T01:55:02.582Z,1002.12
2024-03-12T02:00:04.497Z,1002.17
2024-03-12T02:05:02.949Z,1002.13
2024-03-12T02:10:02.640Z,1002.24
2024-03-12T02:15:03.336Z,1002.19
2024-03-12T02:20:02.992Z,1002.22
2024-03-12T02:25:02.651Z,1002.28
2024-03-12T02:30:03.286Z,1002.28
2024-03-12T02:35:02.823Z,1002.3
2024-03-12T02:40:03.342Z,1002.3
2024-03-12T02:45:03.037Z,1002.31
2024-03-12T02:50:02.635Z,1002.44
2024-03-12T02:55:03.235Z,1002.47
2024-03-12T03:00:02.800Z,1002.49
2024-03-12T03:05:03.359Z,1002.5
2024-03-12T03:10:02.939Z,1002.53
2024-03-12T03:15:02.453Z,1002.51
2024-03-12T03:20:03.098Z,1002.51
2024-03-12T03:25:02.802Z,1002.58
2024-03-12T03:30:02.481Z,1002.61
2024-03-12T03:35:02.963Z,1002.55
2024-03-12T03:40:02.663Z,1002.63
2024-03-12T03:45:03.293Z,1002.62
2024-03-12T03:50:02.801Z,1002.65
2024-03-12T03:55:03.442Z,1002.65
2024-03-12T04:00:03.013Z,1002.69
2024-03-12T04:05:02.485Z,1002.77
2024-03-12T04:10:03.581Z,1002.77
2024-03-12T04:15:03.433Z,1002.84
2024-03-12T04:20:02.973Z,1002.87
2024-03-12T04:25:02.612Z,1002.87
2024-03-12T04:30:03.241Z,1002.97
2024-03-12T04:35:02.680Z,1003
2024-03-12T04:40:03.477Z,1003.08
2024-03-12T04:45:03.085Z,1003.16
2024-03-12T04:50:02.523Z,1003.28
2024-03-12T04:55:03.139Z,1003.36
2024-03-12T05:00:02.733Z,1003.37
2024-03-12T05:05:03.293Z,1003.42
2024-03-12T05:10:02.815Z,1003.6
2024-03-12T05:15:03.426Z,1003.61
2024-03-12T05:20:02.930Z,1003.62
2024-03-12T05:25:02.522Z,1003.63
2024-03-12T05:30:03.146Z,1003.69
2024-03-12T05:35:02.687Z,1003.73
2024-03-12T05:40:03.251Z,1003.82
2024-03-12T05:45:02.856Z,1003.91
2024-03-12T05:50:03.534Z,1003.94
2024-03-12T05:55:03.348Z,1004.02
2024-03-12T06:00:02.927Z,1004.02
2024-03-12T06:05:02.435Z,1003.99
2024-03-12T06:10:03.013Z,1004.14
2024-03-12T06:15:02.753Z,1004.17
2024-03-12T06:20:03.247Z,1004.29
2024-03-12T06:25:02.861Z,1004.31
2024-03-12T06:30:02.673Z,1004.42
2024-03-12T06:35:03.395Z,1004.44
2024-03-12T06:40:02.989Z,1004.48
2024-03-12T06:45:02.530Z,1004.52
2024-03-12T06:50:04.221Z,1004.56
2024-03-12T06:55:02.903Z,1004.56
2024-03-12T07:00:02.415Z,1004.61
2024-03-12T07:05:03.110Z,1004.73
2024-03-12T07:10:02.966Z,1004.78
2024-03-12T07:15:02.443Z,1004.81
2024-03-12T07:20:03.021Z,1004.9
2024-03-12T07:25:02.570Z,1004.97
2024-03-12T07:30:03.084Z,1005.01
2024-03-12T07:35:02.539Z,1005.05
2024-03-12T07:40:03.145Z,1005.09
2024-03-12T07:45:02.723Z,1005.2
2024-03-12T07:50:03.156Z,1005.22
2024-03-12T07:55:02.711Z,1005.2
2024-03-12T08:00:03.169Z,1005.29
2024-03-12T08:05:02.794Z,1005.33
2024-03-12T08:10:03.436Z,1005.31
2024-03-12T08:15:03.713Z,1005.28
2024-03-12T08:20:03.354Z,1005.4
2024-03-12T08:25:02.886Z,1005.46
2024-03-12T08:30:02.434Z,1005.51
2024-03-12T08:35:02.960Z,1005.51
2024-03-12T08:40:02.501Z,1005.53
2024-03-12T08:45:03.317Z,1005.51
2024-03-12T08:50:02.824Z,1005.52
2024-03-12T08:55:03.398Z,1005.63
2024-03-12T09:00:03.111Z,1005.69
2024-03-12T09:05:02.676Z,1005.66
2024-03-12T09:10:03.393Z,1005.74
2024-03-12T09:15:02.962Z,1005.78
2024-03-12T09:20:02.496Z,1005.88
2024-03-12T09:25:03.024Z,1005.94
2024-03-12T09:30:02.653Z,1005.96
2024-03-12T09:35:03.197Z,1006.06
2024-03-12T09:40:03.370Z,1006.07
2024-03-12T09:45:02.978Z,1006.05
2024-03-12T09:50:04.932Z,1006.08
2024-03-12T09:55:02.823Z,1006.13
2024-03-12T10:00:02.337Z,1006.16
2024-03-12T10:05:03.017Z,1006.14
2024-03-12T10:10:02.628Z,1006.23
2024-03-12T10:15:03.407Z,1006.23
2024-03-12T10:20:04.542Z,1006.29
2024-03-12T10:25:02.635Z,1006.33
2024-03-12T10:30:03.184Z,1006.32
2024-03-12T10:35:02.694Z,1006.39
2024-03-12T10:40:03.327Z,1006.39
2024-03-12T10:45:02.784Z,1006.42
2024-03-12T10:50:03.821Z,1006.47
2024-03-12T10:55:09.750Z,1006.44
2024-03-12T11:00:03.300Z,1006.5
2024-03-12T11:05:04.124Z,1006.53
2024-03-12T11:10:02.768Z,1006.53
2024-03-12T11:15:05.698Z,1006.55
2024-03-12T11:20:03.930Z,1006.65
2024-03-12T11:25:03.641Z,1006.68
2024-03-12T11:30:03.815Z,1006.69
2024-03-12T11:35:04.003Z,1006.69
2024-03-12T11:40:03.831Z,1006.78
2024-03-12T11:45:04.281Z,1006.78
2024-03-12T11:50:05.111Z,1006.89
2024-03-12T11:55:04.379Z,1006.8
2024-03-12T12:00:04.412Z,1006.89
2024-03-12T12:05:02.969Z,1006.93
2024-03-12T12:10:04.194Z,1006.93
2024-03-12T12:15:03.681Z,1006.99
2024-03-12T12:20:03.408Z,1007.01
2024-03-12T12:25:03.071Z,1006.98
2024-03-12T12:30:04.349Z,1006.95
2024-03-12T12:35:03.287Z,1006.98
2024-03-12T12:40:04.427Z,1006.99
2024-03-12T12:45:02.951Z,1006.94
2024-03-12T12:50:02.411Z,1007.05
2024-03-12T12:55:02.935Z,1007.04
2024-03-12T13:00:02.446Z,1007.04
2024-03-12T13:05:02.952Z,1007.05
2024-03-12T13:10:02.439Z,1007.11
2024-03-12T13:15:03.405Z,1007.17
2024-03-12T13:20:02.941Z,1007.14
2024-03-12T13:25:02.441Z,1007.17
2024-03-12T13:30:03.450Z,1007.19
2024-03-12T13:35:03.199Z,1007.19
2024-03-12T13:40:02.712Z,1007.22
2024-03-12T13:45:03.413Z,1007.24
2024-03-12T13:50:03.092Z,1007.26
2024-03-12T13:55:02.621Z,1007.27
2024-03-12T14:00:02.726Z,1007.31
2024-03-12T14:05:05.648Z,1007.35
2024-03-12T14:10:02.574Z,1007.41
2024-03-12T14:15:03.290Z,1007.42
2024-03-12T14:20:02.866Z,1007.51
2024-03-12T14:25:02.501Z,1007.5
2024-03-12T14:30:03.165Z,1007.44
2024-03-12T14:35:02.759Z,1007.42
2024-03-12T14:40:03.446Z,1007.53
2024-03-12T14:45:03.055Z,1007.53
2024-03-12T14:50:02.572Z,1007.53
2024-03-12T14:55:03.135Z,1007.56
2024-03-12T15:00:05.567Z,1007.58
2024-03-12T15:05:02.390Z,1007.64
2024-03-12T15:10:03.100Z,1007.62
2024-03-12T15:15:02.712Z,1007.57
2024-03-12T15:20:03.279Z,1007.58
2024-03-12T15:25:02.872Z,1007.47
2024-03-12T15:30:02.659Z,1007.5
2024-03-12T15:35:03.324Z,1007.48
2024-03-12T15:40:02.933Z,1007.49
2024-03-12T15:45:02.477Z,1007.47
2024-03-12T15:50:03.005Z,1007.56
2024-03-12T15:55:02.601Z,1007.57
2024-03-12T16:00:03.196Z,1007.58
2024-03-12T16:05:02.751Z,1007.57
2024-03-12T16:10:03.655Z,1007.54
2024-03-12T16:15:03.357Z,1007.47
2024-03-12T16:20:03.156Z,1007.44
2024-03-12T16:25:02.732Z,1007.5
2024-03-12T16:30:03.260Z,1007.5
2024-03-12T16:35:02.956Z,1007.39
2024-03-12T16:40:02.681Z,1007.34
2024-03-12T16:45:03.223Z,1007.38
2024-03-12T16:50:02.766Z,1007.4
2024-03-12T16:55:03.331Z,1007.43
2024-03-12T17:00:02.823Z,1007.37
2024-03-12T17:05:03.350Z,1007.37
2024-03-12T17:10:03.021Z,1007.36
2024-03-12T17:15:02.709Z,1007.38
2024-03-12T17:20:03.323Z,1007.47
2024-03-12T17:25:03.048Z,1007.6
2024-03-12T17:30:03.230Z,1007.63
2024-03-12T17:35:02.830Z,1007.72
2024-03-12T17:40:02.402Z,1007.69
2024-03-12T17:45:02.960Z,1007.69
2024-03-12T17:50:02.419Z,1007.7
2024-03-12T17:55:02.990Z,1007.72
2024-03-12T18:00:04.586Z,1007.68
2024-03-12T18:05:03.378Z,1007.71
2024-03-12T18:10:03.082Z,1007.7
2024-03-12T18:15:02.638Z,1007.68
2024-03-12T18:20:03.290Z,1007.68
2024-03-12T18:25:02.974Z,1007.75
2024-03-12T18:30:02.478Z,1007.69
2024-03-12T18:35:03.014Z,1007.67
2024-03-12T18:40:03.747Z,1007.7
2024-03-12T18:45:04.082Z,1007.75
2024-03-12T18:50:02.788Z,1007.75
2024-03-12T18:55:03.535Z,1007.79
2024-03-12T19:00:04.301Z,1007.72
2024-03-12T19:05:02.824Z,1007.72
2024-03-12T19:10:03.340Z,1007.74
2024-03-12T19:15:02.905Z,1007.7
2024-03-12T19:20:02.512Z,1007.7
2024-03-12T19:25:03.060Z,1007.75
2024-03-12T19:30:02.554Z,1007.71
2024-03-12T19:35:03.081Z,1007.73
2024-03-12T19:40:02.850Z,1007.71
2024-03-12T19:45:03.492Z,1007.66
2024-03-12T19:50:03.295Z,1007.71
2024-03-12T19:55:03.546Z,1007.61
2024-03-12T20:00:03.780Z,1007.63
2024-03-12T20:05:04.084Z,1007.61
2024-03-12T20:10:02.815Z,1007.53
2024-03-12T20:15:03.343Z,1007.59
2024-03-12T20:20:02.808Z,1007.51
2024-03-12T20:25:03.360Z,1007.51
2024-03-12T20:30:02.813Z,1007.49
2024-03-12T20:35:03.419Z,1007.47
2024-03-12T20:40:03.041Z,1007.38
2024-03-12T20:45:02.681Z,1007.35
2024-03-12T20:50:03.206Z,1007.32
2024-03-12T20:55:02.793Z,1007.32
2024-03-12T21:00:03.301Z,1007.3
2024-03-12T21:05:02.832Z,1007.26
2024-03-12T21:10:03.432Z,1007.24
2024-03-12T21:15:03.009Z,1007.18
2024-03-12T21:20:03.151Z,1007.15
2024-03-12T21:25:02.724Z,1007.1
2024-03-12T21:30:03.340Z,1007.09
2024-03-12T21:35:02.783Z,1007.16
2024-03-12T21:40:03.342Z,1007.15
2024-03-12T21:45:02.946Z,1007.18
2024-03-12T21:50:02.375Z,1007.24
2024-03-12T21:55:02.958Z,1007.16
2024-03-12T22:00:02.393Z,1007.15
2024-03-12T22:05:02.951Z,1007.17
2024-03-12T22:10:02.566Z,1007.2
2024-03-12T22:15:03.179Z,1007.21
2024-03-12T22:20:03.203Z,1007.28
2024-03-12T22:25:02.785Z,1007.31
2024-03-12T22:30:03.286Z,1007.28
2024-03-12T22:35:02.884Z,1007.28
2024-03-12T22:40:02.558Z,1007.31
2024-03-12T22:45:03.406Z,1007.23
2024-03-12T22:50:03.266Z,1007.26
2024-03-12T22:55:03.009Z,1007.18
2024-03-12T23:00:02.707Z,1007.18
2024-03-12T23:05:03.986Z,1007.25
2024-03-12T23:10:02.648Z,1007.22
2024-03-12T23:15:03.323Z,1007.25
2024-03-12T23:20:03.318Z,1007.34
2024-03-12T23:25:03.050Z,1007.32
2024-03-12T23:30:03.086Z,1007.26
2024-03-12T23:35:02.843Z,1007.26
2024-03-12T23:40:02.613Z,1007.2
2024-03-12T23:45:03.252Z,1007.18
2024-03-12T23:50:02.980Z,1007.18
2024-03-12T23:55:02.709Z,1007.21
